sensor_id;sensor_type;location;lat;lon;timestamp;pressure;altitude;pressure_sealevel;temperature;humidity
15674;BME280;7937;48.090;16.212;2023-02-12T00:01:19;99201.47;;;4.86;63.14
15674;BME280;7937;48.090;16.212;2023-02-12T00:04:21;99191.25;;;4.91;63.04
15674;BME280;7937;48.090;16.212;2023-02-12T00:07:23;99189.91;;;4.87;63.18
15674;BME280;7937;48.090;16.212;2023-02-12T00:10:25;99205.25;;;4.92;63.60
15674;BME280;7937;48.090;16.212;2023-02-12T00:13:29;99195.88;;;4.89;64.20
15674;BME280;7937;48.090;16.212;2023-02-12T00:16:32;99197.34;;;4.92;64.04
15674;BME280;7937;48.090;16.212;2023-02-12T00:19:34;99194.69;;;5.00;63.87
15674;BME280;7937;48.090;16.212;2023-02-12T00:22:36;99176.91;;;4.78;63.98
15674;BME280;7937;48.090;16.212;2023-02-12T00:25:40;99211.69;;;5.06;63.80
15674;BME280;7937;48.090;16.212;2023-02-12T00:28:43;99225.06;;;5.04;64.06
15674;BME280;7937;48.090;16.212;2023-02-12T00:31:46;99222.75;;;5.01;64.10
15674;BME280;7937;48.090;16.212;2023-02-12T00:34:48;99218.63;;;4.99;64.20
15674;BME280;7937;48.090;16.212;2023-02-12T00:37:50;99218.63;;;4.99;64.10
15674;BME280;7937;48.090;16.212;2023-02-12T00:40:52;99227.06;;;4.94;64.36
15674;BME280;7937;48.090;16.212;2023-02-12T00:43:55;99224.09;;;4.89;64.37
15674;BME280;7937;48.090;16.212;2023-02-12T00:46:57;99222.78;;;4.93;64.46
15674;BME280;7937;48.090;16.212;2023-02-12T00:49:59;99208.91;;;4.99;64.38
15674;BME280;7937;48.090;16.212;2023-02-12T00:53:01;99201.16;;;4.98;64.29
15674;BME280;7937;48.090;16.212;2023-02-12T00:56:03;99218.63;;;4.99;64.69
15674;BME280;7937;48.090;16.212;2023-02-12T00:59:05;99213.81;;;5.02;64.55
15674;BME280;7937;48.090;16.212;2023-02-12T01:02:09;99206.06;;;5.01;64.54
15674;BME280;7937;48.090;16.212;2023-02-12T01:05:11;99215.13;;;5.06;64.46
15674;BME280;7937;48.090;16.212;2023-02-12T01:08:15;99218.59;;;5.07;64.37
15674;BME280;7937;48.090;16.212;2023-02-12T01:11:17;99217.63;;;5.00;64.34
15674;BME280;7937;48.090;16.212;2023-02-12T01:14:20;99232.50;;;5.01;64.38
15674;BME280;7937;48.090;16.212;2023-02-12T01:17:22;99244.06;;;5.00;64.86
15674;BME280;7937;48.090;16.212;2023-02-12T01:20:24;99225.25;;;5.03;64.67
15674;BME280;7937;48.090;16.212;2023-02-12T01:23:26;99239.78;;;4.99;64.94
15674;BME280;7937;48.090;16.212;2023-02-12T01:26:30;99197.56;;;4.74;64.90
15674;BME280;7937;48.090;16.212;2023-02-12T01:29:32;99254.94;;;5.05;64.88
15674;BME280;7937;48.090;16.212;2023-02-12T01:32:34;99254.94;;;5.05;64.87
15674;BME280;7937;48.090;16.212;2023-02-12T01:35:37;99234.81;;;4.96;64.57
15674;BME280;7937;48.090;16.212;2023-02-12T01:38:40;99250.47;;;5.05;65.08
15674;BME280;7937;48.090;16.212;2023-02-12T01:41:43;99257.56;;;5.05;64.78
15674;BME280;7937;48.090;16.212;2023-02-12T01:48:16;99284.81;;;5.05;65.10
15674;BME280;7937;48.090;16.212;2023-02-12T01:51:20;99293.91;;;5.03;65.14
15674;BME280;7937;48.090;16.212;2023-02-12T01:54:23;99288.78;;;5.01;64.98
15674;BME280;7937;48.090;16.212;2023-02-12T01:57:30;99289.78;;;5.00;64.92
15674;BME280;7937;48.090;16.212;2023-02-12T02:00:33;99286.47;;;4.98;65.31
15674;BME280;7937;48.090;16.212;2023-02-12T02:03:37;99284.34;;;4.94;65.91
15674;BME280;7937;48.090;16.212;2023-02-12T02:06:49;99288.78;;;4.85;67.11
15674;BME280;7937;48.090;16.212;2023-02-12T02:09:53;99273.13;;;4.75;68.05
15674;BME280;7937;48.090;16.212;2023-02-12T02:12:56;99275.91;;;4.65;68.38
15674;BME280;7937;48.090;16.212;2023-02-12T02:16:25;99299.16;;;4.62;68.63
15674;BME280;7937;48.090;16.212;2023-02-12T02:19:42;99293.25;;;4.60;68.21
15674;BME280;7937;48.090;16.212;2023-02-12T02:33:36;99285.97;;;4.54;69.23
15674;BME280;7937;48.090;16.212;2023-02-12T02:36:40;99283.97;;;4.48;69.75
15674;BME280;7937;48.090;16.212;2023-02-12T02:40:10;99293.22;;;4.44;70.13
15674;BME280;7937;48.090;16.212;2023-02-12T02:43:27;99259.88;;;4.26;69.41
15674;BME280;7937;48.090;16.212;2023-02-12T02:46:34;99300.47;;;4.58;69.38
15674;BME280;7937;48.090;16.212;2023-02-12T02:49:52;99295.22;;;4.66;69.43
15674;BME280;7937;48.090;16.212;2023-02-12T02:53:01;99301.81;;;4.62;70.16
15674;BME280;7937;48.090;16.212;2023-02-12T02:56:07;99260.22;;;4.31;70.60
15674;BME280;7937;48.090;16.212;2023-02-12T02:59:20;99262.34;;;4.28;70.30
15674;BME280;7937;48.090;16.212;2023-02-12T03:02:28;99324.41;;;4.56;71.28
15674;BME280;7937;48.090;16.212;2023-02-12T03:05:37;99314.84;;;4.55;71.64
15674;BME280;7937;48.090;16.212;2023-02-12T03:08:50;99295.34;;;4.32;71.93
15674;BME280;7937;48.090;16.212;2023-02-12T03:11:56;99326.06;;;4.49;72.15
15674;BME280;7937;48.090;16.212;2023-02-12T03:15:10;99325.53;;;4.46;72.21
15674;BME280;7937;48.090;16.212;2023-02-12T03:18:24;99265.75;;;3.96;72.11
15674;BME280;7937;48.090;16.212;2023-02-12T03:21:35;99314.63;;;4.24;72.30
15674;BME280;7937;48.090;16.212;2023-02-12T03:24:48;99339.69;;;4.36;71.99
15674;BME280;7937;48.090;16.212;2023-02-12T03:27:59;99336.56;;;4.41;71.50
15674;BME280;7937;48.090;16.212;2023-02-12T03:37:26;99357.22;;;4.46;71.45
15674;BME280;7937;48.090;16.212;2023-02-12T03:40:35;99361.84;;;4.44;72.18
15674;BME280;7937;48.090;16.212;2023-02-12T03:43:52;99352.06;;;4.36;72.63
15674;BME280;7937;48.090;16.212;2023-02-12T03:47:09;99361.09;;;4.25;72.79
15674;BME280;7937;48.090;16.212;2023-02-12T03:50:19;99364.88;;;4.23;73.04
15674;BME280;7937;48.090;16.212;2023-02-12T03:53:26;99362.09;;;4.24;73.40
15674;BME280;7937;48.090;16.212;2023-02-12T03:56:36;99370.00;;;4.24;73.20
15674;BME280;7937;48.090;16.212;2023-02-12T03:59:39;99370.66;;;4.26;73.34
15674;BME280;7937;48.090;16.212;2023-02-12T04:02:42;99378.75;;;4.25;73.19
15674;BME280;7937;48.090;16.212;2023-02-12T04:05:45;99380.22;;;4.19;73.29
15674;BME280;7937;48.090;16.212;2023-02-12T04:08:47;99379.69;;;4.16;73.81
15674;BME280;7937;48.090;16.212;2023-02-12T04:18:43;99392.25;;;4.22;73.55
15674;BME280;7937;48.090;16.212;2023-02-12T04:29:20;99399.03;;;4.32;72.77
15674;BME280;7937;48.090;16.212;2023-02-12T04:32:46;99406.97;;;4.32;73.01
15674;BME280;7937;48.090;16.212;2023-02-12T04:35:58;99404.31;;;4.32;72.75
15674;BME280;7937;48.090;16.212;2023-02-12T04:39:09;99389.72;;;4.12;73.29
15674;BME280;7937;48.090;16.212;2023-02-12T04:42:11;99412.41;;;4.31;73.16
15674;BME280;7937;48.090;16.212;2023-02-12T04:45:20;99427.59;;;4.37;73.19
15674;BME280;7937;48.090;16.212;2023-02-12T04:48:23;99422.13;;;4.30;73.22
15674;BME280;7937;48.090;16.212;2023-02-12T04:51:25;99424.59;;;4.24;73.75
15674;BME280;7937;48.090;16.212;2023-02-12T04:54:27;99432.34;;;4.25;73.96
15674;BME280;7937;48.090;16.212;2023-02-12T04:57:29;99430.34;;;4.27;73.75
15674;BME280;7937;48.090;16.212;2023-02-12T05:00:31;99407.69;;;4.08;73.75
15674;BME280;7937;48.090;16.212;2023-02-12T05:03:33;99449.16;;;4.32;73.79
15674;BME280;7937;48.090;16.212;2023-02-12T05:06:36;99450.81;;;4.33;73.68
15674;BME280;7937;48.090;16.212;2023-02-12T05:09:38;99451.34;;;4.37;73.75
15674;BME280;7937;48.090;16.212;2023-02-12T05:12:40;99453.31;;;4.35;73.60
15674;BME280;7937;48.090;16.212;2023-02-12T05:15:42;99459.78;;;4.40;73.69
15674;BME280;7937;48.090;16.212;2023-02-12T05:18:45;99416.78;;;4.14;73.29
15674;BME280;7937;48.090;16.212;2023-02-12T05:21:49;99454.97;;;4.36;73.63
15674;BME280;7937;48.090;16.212;2023-02-12T05:24:51;99461.75;;;4.38;73.40
15674;BME280;7937;48.090;16.212;2023-02-12T05:27:53;99459.72;;;4.32;73.94
15674;BME280;7937;48.090;16.212;2023-02-12T05:31:01;99434.91;;;4.09;73.73
15674;BME280;7937;48.090;16.212;2023-02-12T05:34:05;99470.63;;;4.37;73.55
15674;BME280;7937;48.090;16.212;2023-02-12T05:37:08;99482.34;;;4.43;73.55
15674;BME280;7937;48.090;16.212;2023-02-12T05:40:10;99481.03;;;4.39;73.43
15674;BME280;7937;48.090;16.212;2023-02-12T05:43:12;99484.69;;;4.46;73.36
15674;BME280;7937;48.090;16.212;2023-02-12T05:46:14;99497.22;;;4.44;73.37
15674;BME280;7937;48.090;16.212;2023-02-12T05:49:16;99494.25;;;4.47;73.03
15674;BME280;7937;48.090;16.212;2023-02-12T05:52:18;99513.09;;;4.52;72.79
15674;BME280;7937;48.090;16.212;2023-02-12T05:55:20;99506.50;;;4.56;72.57
15674;BME280;7937;48.090;16.212;2023-02-12T05:58:22;99514.78;;;4.61;72.43
15674;BME280;7937;48.090;16.212;2023-02-12T06:01:34;99521.69;;;4.62;72.56
15674;BME280;7937;48.090;16.212;2023-02-12T06:04:36;99524.69;;;4.68;72.46
15674;BME280;7937;48.090;16.212;2023-02-12T06:07:38;99533.59;;;4.58;72.77
15674;BME280;7937;48.090;16.212;2023-02-12T06:10:40;99524.16;;;4.56;72.85
15674;BME280;7937;48.090;16.212;2023-02-12T06:13:43;99530.44;;;4.55;72.87
15674;BME280;7937;48.090;16.212;2023-02-12T06:16:47;99530.78;;;4.60;72.65
15674;BME280;7937;48.090;16.212;2023-02-12T06:19:49;99532.63;;;4.68;72.62
15674;BME280;7937;48.090;16.212;2023-02-12T06:22:51;99544.53;;;4.72;72.28
15674;BME280;7937;48.090;16.212;2023-02-12T06:25:56;99557.59;;;4.73;72.15
15674;BME280;7937;48.090;16.212;2023-02-12T06:29:00;99530.06;;;4.50;72.30
15674;BME280;7937;48.090;16.212;2023-02-12T06:32:02;99559.28;;;4.56;72.72
15674;BME280;7937;48.090;16.212;2023-02-12T06:35:05;99566.22;;;4.57;72.55
15674;BME280;7937;48.090;16.212;2023-02-12T06:38:07;99569.56;;;4.59;72.54
15674;BME280;7937;48.090;16.212;2023-02-12T06:41:10;99563.59;;;4.57;72.77
15674;BME280;7937;48.090;16.212;2023-02-12T06:44:12;99540.28;;;4.45;72.51
15674;BME280;7937;48.090;16.212;2023-02-12T06:47:14;99567.56;;;4.61;72.49
15674;BME280;7937;48.090;16.212;2023-02-12T06:50:16;99565.41;;;4.57;72.75
15674;BME280;7937;48.090;16.212;2023-02-12T06:53:18;99568.03;;;4.57;72.66
15674;BME280;7937;48.090;16.212;2023-02-12T06:56:22;99575.97;;;4.57;72.75
15674;BME280;7937;48.090;16.212;2023-02-12T06:59:24;99583.56;;;4.60;72.65
15674;BME280;7937;48.090;16.212;2023-02-12T07:02:26;99564.03;;;4.45;72.55
15674;BME280;7937;48.090;16.212;2023-02-12T07:05:28;99587.03;;;4.60;72.82
15674;BME280;7937;48.090;16.212;2023-02-12T07:08:30;99595.00;;;4.69;72.62
15674;BME280;7937;48.090;16.212;2023-02-12T07:11:34;99589.72;;;4.69;72.32
15674;BME280;7937;48.090;16.212;2023-02-12T07:14:39;99587.09;;;4.69;72.63
15674;BME280;7937;48.090;16.212;2023-02-12T07:17:41;99587.09;;;4.69;72.60
15674;BME280;7937;48.090;16.212;2023-02-12T07:20:43;99585.81;;;4.81;72.19
15674;BME280;7937;48.090;16.212;2023-02-12T07:23:47;99586.34;;;4.84;71.74
15674;BME280;7937;48.090;16.212;2023-02-12T07:26:52;99593.09;;;4.79;72.18
15674;BME280;7937;48.090;16.212;2023-02-12T07:29:53;99563.44;;;4.59;71.95
15674;BME280;7937;48.090;16.212;2023-02-12T07:32:55;99594.44;;;4.83;72.10
15674;BME280;7937;48.090;16.212;2023-02-12T07:36:02;99605.47;;;4.86;72.06
15674;BME280;7937;48.090;16.212;2023-02-12T07:39:04;99610.13;;;4.92;71.70
15674;BME280;7937;48.090;16.212;2023-02-12T07:42:06;99611.81;;;5.02;71.41
15674;BME280;7937;48.090;16.212;2023-02-12T07:45:09;99615.78;;;4.98;71.67
15674;BME280;7937;48.090;16.212;2023-02-12T07:48:11;99586.94;;;4.70;72.01
15674;BME280;7937;48.090;16.212;2023-02-12T07:51:15;99622.97;;;4.87;72.38
15674;BME280;7937;48.090;16.212;2023-02-12T07:54:20;99621.31;;;4.78;73.43
15674;BME280;7937;48.090;16.212;2023-02-12T07:57:21;99626.25;;;4.81;73.64
15674;BME280;7937;48.090;16.212;2023-02-12T08:00:23;99610.03;;;4.68;73.74
15674;BME280;7937;48.090;16.212;2023-02-12T08:03:27;99622.13;;;4.79;73.97
15674;BME280;7937;48.090;16.212;2023-02-12T08:06:31;99627.59;;;4.85;74.00
15674;BME280;7937;48.090;16.212;2023-02-12T08:09:33;99598.94;;;4.64;73.75
15674;BME280;7937;48.090;16.212;2023-02-12T08:12:35;99629.34;;;5.03;73.48
15674;BME280;7937;48.090;16.212;2023-02-12T08:15:37;99628.53;;;5.10;73.09
15674;BME280;7937;48.090;16.212;2023-02-12T08:18:40;99590.47;;;4.87;72.80
15674;BME280;7937;48.090;16.212;2023-02-12T08:21:42;99636.97;;;5.14;72.78
15674;BME280;7937;48.090;16.212;2023-02-12T08:24:44;99605.22;;;4.98;72.61
15674;BME280;7937;48.090;16.212;2023-02-12T08:27:46;99645.44;;;5.17;72.86
15674;BME280;7937;48.090;16.212;2023-02-12T08:30:48;99639.50;;;5.24;72.38
15674;BME280;7937;48.090;16.212;2023-02-12T08:33:51;99648.78;;;5.36;71.81
15674;BME280;7937;48.090;16.212;2023-02-12T08:36:56;99589.75;;;5.11;71.80
15674;BME280;7937;48.090;16.212;2023-02-12T08:39:58;99654.88;;;5.79;71.23
15674;BME280;7937;48.090;16.212;2023-02-12T08:43:00;99645.84;;;5.98;70.76
15674;BME280;7937;48.090;16.212;2023-02-12T08:46:18;99655.84;;;5.86;69.70
15674;BME280;7937;48.090;16.212;2023-02-12T08:49:23;99626.41;;;5.64;69.89
15674;BME280;7937;48.090;16.212;2023-02-12T08:52:25;99668.59;;;5.90;69.54
15674;BME280;7937;48.090;16.212;2023-02-12T08:55:27;99637.50;;;5.84;69.36
15674;BME280;7937;48.090;16.212;2023-02-12T08:58:29;99667.84;;;6.23;68.73
15674;BME280;7937;48.090;16.212;2023-02-12T09:01:33;99659.75;;;6.40;67.92
15674;BME280;7937;48.090;16.212;2023-02-12T09:04:36;99666.84;;;6.40;67.38
15674;BME280;7937;48.090;16.212;2023-02-12T09:07:38;99669.34;;;6.33;68.80
15674;BME280;7937;48.090;16.212;2023-02-12T09:10:41;99677.28;;;6.41;67.30
15674;BME280;7937;48.090;16.212;2023-02-12T09:13:45;99676.28;;;6.51;67.62
15674;BME280;7937;48.090;16.212;2023-02-12T09:16:47;99686.22;;;6.49;67.21
15674;BME280;7937;48.090;16.212;2023-02-12T09:19:49;99688.19;;;6.38;67.10
15674;BME280;7937;48.090;16.212;2023-02-12T09:22:51;99687.03;;;6.16;67.79
15674;BME280;7937;48.090;16.212;2023-02-12T09:25:54;99693.13;;;6.09;68.09
15674;BME280;7937;48.090;16.212;2023-02-12T09:28:57;99664.84;;;5.93;67.91
15674;BME280;7937;48.090;16.212;2023-02-12T09:31:59;99665.19;;;6.14;67.52
15674;BME280;7937;48.090;16.212;2023-02-12T09:35:03;99649.47;;;6.13;67.52
15674;BME280;7937;48.090;16.212;2023-02-12T09:38:06;99673.31;;;6.37;67.24
15674;BME280;7937;48.090;16.212;2023-02-12T09:50:59;99687.19;;;6.64;66.21
15674;BME280;7937;48.090;16.212;2023-02-12T09:54:15;99686.78;;;7.55;63.89
15674;BME280;7937;48.090;16.212;2023-02-12T09:57:31;99684.53;;;9.85;56.63
15674;BME280;7937;48.090;16.212;2023-02-12T10:00:35;99677.28;;;11.62;52.32
15674;BME280;7937;48.090;16.212;2023-02-12T10:03:38;99683.06;;;12.40;48.98
15674;BME280;7937;48.090;16.212;2023-02-12T10:06:51;99665.38;;;12.85;47.08
15674;BME280;7937;48.090;16.212;2023-02-12T10:26:38;99693.25;;;11.83;47.83
15674;BME280;7937;48.090;16.212;2023-02-12T10:29:44;99692.72;;;11.25;49.92
15674;BME280;7937;48.090;16.212;2023-02-12T10:32:52;99698.75;;;11.34;49.72
15674;BME280;7937;48.090;16.212;2023-02-12T10:36:05;99704.38;;;10.62;51.32
15674;BME280;7937;48.090;16.212;2023-02-12T10:39:23;99698.44;;;9.66;54.23
15674;BME280;7937;48.090;16.212;2023-02-12T10:42:47;99703.94;;;9.05;56.15
15674;BME280;7937;48.090;16.212;2023-02-12T10:45:49;99705.03;;;8.96;56.78
15674;BME280;7937;48.090;16.212;2023-02-12T10:48:52;99697.13;;;8.73;58.01
15674;BME280;7937;48.090;16.212;2023-02-12T10:55:39;99701.34;;;8.67;57.85
15674;BME280;7937;48.090;16.212;2023-02-12T10:58:52;99704.88;;;8.97;57.19
15674;BME280;7937;48.090;16.212;2023-02-12T11:01:55;99699.88;;;8.42;58.26
15674;BME280;7937;48.090;16.212;2023-02-12T11:04:59;99696.63;;;8.09;59.42
15674;BME280;7937;48.090;16.212;2023-02-12T11:08:35;99700.38;;;8.14;59.39
15674;BME280;7937;48.090;16.212;2023-02-12T11:11:38;99685.63;;;8.12;59.53
15674;BME280;7937;48.090;16.212;2023-02-12T11:14:48;99690.81;;;8.05;59.61
15674;BME280;7937;48.090;16.212;2023-02-12T11:18:00;99680.66;;;7.86;60.00
15674;BME280;7937;48.090;16.212;2023-02-12T11:21:10;99678.78;;;7.94;60.15
15674;BME280;7937;48.090;16.212;2023-02-12T11:24:38;99662.72;;;7.88;60.20
15674;BME280;7937;48.090;16.212;2023-02-12T11:27:40;99681.19;;;7.81;60.29
15674;BME280;7937;48.090;16.212;2023-02-12T11:30:51;99666.28;;;7.49;60.62
15674;BME280;7937;48.090;16.212;2023-02-12T11:34:17;99677.81;;;7.56;60.92
15674;BME280;7937;48.090;16.212;2023-02-12T11:37:22;99674.66;;;7.61;60.77
15674;BME280;7937;48.090;16.212;2023-02-12T11:40:27;99677.91;;;7.71;60.73
15674;BME280;7937;48.090;16.212;2023-02-12T11:43:32;99676.28;;;7.70;60.46
15674;BME280;7937;48.090;16.212;2023-02-12T11:46:35;99685.06;;;7.70;60.28
15674;BME280;7937;48.090;16.212;2023-02-12T11:49:47;99670.38;;;7.52;60.49
15674;BME280;7937;48.090;16.212;2023-02-12T11:52:53;99692.25;;;7.54;60.95
15674;BME280;7937;48.090;16.212;2023-02-12T11:56:04;99689.25;;;7.57;61.08
15674;BME280;7937;48.090;16.212;2023-02-12T11:59:17;99678.69;;;7.48;61.35
15674;BME280;7937;48.090;16.212;2023-02-12T12:02:33;99687.22;;;7.67;60.91
15674;BME280;7937;48.090;16.212;2023-02-12T12:05:51;99667.66;;;7.68;59.97
15674;BME280;7937;48.090;16.212;2023-02-12T12:12:37;99670.91;;;7.47;61.02
15674;BME280;7937;48.090;16.212;2023-02-12T12:15:45;99652.94;;;7.18;61.30
15674;BME280;7937;48.090;16.212;2023-02-12T12:19:22;99679.78;;;7.23;61.73
15674;BME280;7937;48.090;16.212;2023-02-12T12:23:31;99682.78;;;7.20;61.30
15674;BME280;7937;48.090;16.212;2023-02-12T12:26:38;99668.47;;;7.37;61.05
15674;BME280;7937;48.090;16.212;2023-02-12T12:29:54;99667.59;;;7.45;60.71
15674;BME280;7937;48.090;16.212;2023-02-12T12:33:04;99663.94;;;7.54;60.81
15674;BME280;7937;48.090;16.212;2023-02-12T12:46:16;99662.47;;;7.43;61.50
15674;BME280;7937;48.090;16.212;2023-02-12T12:53:01;99651.91;;;7.66;60.82
15674;BME280;7937;48.090;16.212;2023-02-12T13:03:08;99659.13;;;7.49;60.95
15674;BME280;7937;48.090;16.212;2023-02-12T13:06:27;99658.84;;;7.36;61.15
15674;BME280;7937;48.090;16.212;2023-02-12T13:16:39;99671.59;;;7.41;61.38
15674;BME280;7937;48.090;16.212;2023-02-12T13:19:57;99666.16;;;7.34;61.90
15674;BME280;7937;48.090;16.212;2023-02-12T13:23:11;99671.19;;;7.21;62.39
15674;BME280;7937;48.090;16.212;2023-02-12T13:26:30;99670.69;;;7.09;62.78
15674;BME280;7937;48.090;16.212;2023-02-12T13:29:44;99672.59;;;6.92;63.22
15674;BME280;7937;48.090;16.212;2023-02-12T13:33:19;99670.75;;;6.93;63.36
15674;BME280;7937;48.090;16.212;2023-02-12T13:36:23;99667.47;;;6.91;63.77
15674;BME280;7937;48.090;16.212;2023-02-12T13:39:36;99638.19;;;6.76;63.59
15674;BME280;7937;48.090;16.212;2023-02-12T13:42:59;99662.31;;;6.89;63.43
15674;BME280;7937;48.090;16.212;2023-02-12T13:49:57;99648.38;;;7.04;62.76
15674;BME280;7937;48.090;16.212;2023-02-12T13:59:41;99648.22;;;7.05;62.42
15674;BME280;7937;48.090;16.212;2023-02-12T14:02:45;99653.19;;;7.00;62.60
15674;BME280;7937;48.090;16.212;2023-02-12T14:06:29;99658.31;;;6.93;62.68
15674;BME280;7937;48.090;16.212;2023-02-12T14:09:45;99656.19;;;6.89;62.62
15674;BME280;7937;48.090;16.212;2023-02-12T14:12:48;99647.25;;;6.90;62.92
15674;BME280;7937;48.090;16.212;2023-02-12T14:15:54;99646.06;;;7.01;62.73
15674;BME280;7937;48.090;16.212;2023-02-12T14:25:55;99642.72;;;7.07;62.39
15674;BME280;7937;48.090;16.212;2023-02-12T14:29:02;99651.69;;;6.97;62.46
15674;BME280;7937;48.090;16.212;2023-02-12T14:35:48;99643.94;;;6.96;62.78
15674;BME280;7937;48.090;16.212;2023-02-12T14:45:35;99647.09;;;6.91;62.84
15674;BME280;7937;48.090;16.212;2023-02-12T14:52:11;99670.75;;;6.93;62.47
15674;BME280;7937;48.090;16.212;2023-02-12T14:55:29;99676.41;;;6.90;62.49
15674;BME280;7937;48.090;16.212;2023-02-12T14:58:36;99666.44;;;7.00;62.34
15674;BME280;7937;48.090;16.212;2023-02-12T15:01:39;99664.44;;;7.02;62.23
15674;BME280;7937;48.090;16.212;2023-02-12T15:04:44;99670.38;;;7.12;62.01
15674;BME280;7937;48.090;16.212;2023-02-12T15:07:48;99679.81;;;7.15;61.94
15674;BME280;7937;48.090;16.212;2023-02-12T15:11:02;99680.16;;;7.12;61.58
15674;BME280;7937;48.090;16.212;2023-02-12T15:14:15;99677.00;;;7.16;61.36
15674;BME280;7937;48.090;16.212;2023-02-12T15:17:26;99679.00;;;7.14;61.42
15674;BME280;7937;48.090;16.212;2023-02-12T15:20:43;99667.59;;;6.89;61.29
15674;BME280;7937;48.090;16.212;2023-02-12T15:27:12;99629.63;;;6.41;61.55
15674;BME280;7937;48.090;16.212;2023-02-12T15:30:21;99637.72;;;6.48;61.58
15674;BME280;7937;48.090;16.212;2023-02-12T15:33:30;99688.50;;;6.76;61.65
15674;BME280;7937;48.090;16.212;2023-02-12T15:36:34;99690.34;;;6.76;61.77
15674;BME280;7937;48.090;16.212;2023-02-12T15:39:43;99690.97;;;6.69;61.57
15674;BME280;7937;48.090;16.212;2023-02-12T15:42:55;99691.84;;;6.70;61.47
15674;BME280;7937;48.090;16.212;2023-02-12T15:45:58;99691.00;;;6.61;61.71
15674;BME280;7937;48.090;16.212;2023-02-12T15:49:17;99693.81;;;6.60;61.77
15674;BME280;7937;48.090;16.212;2023-02-12T15:52:24;99697.44;;;6.59;61.77
15674;BME280;7937;48.090;16.212;2023-02-12T15:55:41;99701.44;;;6.46;62.08
15674;BME280;7937;48.090;16.212;2023-02-12T15:59:06;99705.06;;;6.37;62.40
15674;BME280;7937;48.090;16.212;2023-02-12T16:02:24;99705.41;;;6.42;62.35
15674;BME280;7937;48.090;16.212;2023-02-12T16:05:29;99697.28;;;6.44;62.42
15674;BME280;7937;48.090;16.212;2023-02-12T16:08:36;99682.41;;;6.18;62.55
15674;BME280;7937;48.090;16.212;2023-02-12T16:11:49;99711.34;;;6.28;62.72
15674;BME280;7937;48.090;16.212;2023-02-12T16:14:56;99705.88;;;6.30;62.82
15674;BME280;7937;48.090;16.212;2023-02-12T16:18:03;99712.34;;;6.27;62.82
15674;BME280;7937;48.090;16.212;2023-02-12T16:21:15;99705.56;;;6.25;62.82
15674;BME280;7937;48.090;16.212;2023-02-12T16:24:26;99703.72;;;6.25;63.04
15674;BME280;7937;48.090;16.212;2023-02-12T16:27:32;99711.34;;;6.20;63.08
15674;BME280;7937;48.090;16.212;2023-02-12T16:30:42;99707.03;;;6.11;63.25
15674;BME280;7937;48.090;16.212;2023-02-12T16:33:48;99715.78;;;6.03;63.68
15674;BME280;7937;48.090;16.212;2023-02-12T16:36:54;99713.97;;;6.04;63.75
15674;BME280;7937;48.090;16.212;2023-02-12T16:43:17;99706.63;;;5.81;64.38
15674;BME280;7937;48.090;16.212;2023-02-12T16:46:25;99712.53;;;5.75;64.51
15674;BME280;7937;48.090;16.212;2023-02-12T16:49:29;99727.25;;;5.78;64.55
15674;BME280;7937;48.090;16.212;2023-02-12T16:52:37;99723.44;;;5.72;64.79
15674;BME280;7937;48.090;16.212;2023-02-12T16:55:41;99724.94;;;5.75;64.74
15674;BME280;7937;48.090;16.212;2023-02-12T16:58:50;99692.47;;;5.56;64.31
15674;BME280;7937;48.090;16.212;2023-02-12T17:05:02;99731.72;;;5.77;64.69
15674;BME280;7937;48.090;16.212;2023-02-12T17:08:12;99738.00;;;5.84;64.44
15674;BME280;7937;48.090;16.212;2023-02-12T17:11:16;99697.78;;;5.64;64.38
15674;BME280;7937;48.090;16.212;2023-02-12T17:14:19;99742.31;;;5.77;64.64
15674;BME280;7937;48.090;16.212;2023-02-12T17:17:25;99734.53;;;5.84;64.37
15674;BME280;7937;48.090;16.212;2023-02-12T17:20:28;99732.06;;;5.82;64.39
15674;BME280;7937;48.090;16.212;2023-02-12T17:23:32;99722.41;;;5.65;64.82
15674;BME280;7937;48.090;16.212;2023-02-12T17:26:35;99743.78;;;5.80;64.67
15674;BME280;7937;48.090;16.212;2023-02-12T17:29:38;99748.06;;;5.73;65.17
15674;BME280;7937;48.090;16.212;2023-02-12T17:32:41;99747.25;;;5.72;65.25
15674;BME280;7937;48.090;16.212;2023-02-12T17:35:45;99738.63;;;5.62;65.39
15674;BME280;7937;48.090;16.212;2023-02-12T17:38:49;99738.63;;;5.62;65.45
15674;BME280;7937;48.090;16.212;2023-02-12T17:41:52;99753.00;;;5.67;65.29
15674;BME280;7937;48.090;16.212;2023-02-12T17:44:56;99756.25;;;5.61;65.51
15674;BME280;7937;48.090;16.212;2023-02-12T17:47:59;99757.25;;;5.52;65.41
15674;BME280;7937;48.090;16.212;2023-02-12T17:51:16;99766.59;;;5.47;65.76
15674;BME280;7937;48.090;16.212;2023-02-12T17:54:20;99766.25;;;5.41;66.05
15674;BME280;7937;48.090;16.212;2023-02-12T17:57:22;99715.34;;;5.05;66.15
15674;BME280;7937;48.090;16.212;2023-02-12T18:00:25;99763.06;;;5.30;66.37
15674;BME280;7937;48.090;16.212;2023-02-12T18:03:28;99764.88;;;5.29;66.77
15674;BME280;7937;48.090;16.212;2023-02-12T18:06:32;99769.16;;;5.30;66.48
15674;BME280;7937;48.090;16.212;2023-02-12T18:09:37;99760.72;;;5.27;66.87
15674;BME280;7937;48.090;16.212;2023-02-12T18:12:40;99751.78;;;5.20;66.82
15674;BME280;7937;48.090;16.212;2023-02-12T18:15:44;99764.81;;;5.21;67.08
15674;BME280;7937;48.090;16.212;2023-02-12T18:18:50;99772.75;;;5.21;67.28
15674;BME280;7937;48.090;16.212;2023-02-12T18:21:54;99780.00;;;5.19;67.36
15674;BME280;7937;48.090;16.212;2023-02-12T18:24:58;99780.31;;;5.16;67.50
15674;BME280;7937;48.090;16.212;2023-02-12T18:28:02;99783.94;;;5.15;67.37
15674;BME280;7937;48.090;16.212;2023-02-12T18:31:06;99782.94;;;5.16;67.43
15674;BME280;7937;48.090;16.212;2023-02-12T18:34:10;99729.38;;;4.80;67.47
15674;BME280;7937;48.090;16.212;2023-02-12T18:37:13;99784.03;;;5.05;67.76
15674;BME280;7937;48.090;16.212;2023-02-12T18:40:16;99791.44;;;5.02;67.82
15674;BME280;7937;48.090;16.212;2023-02-12T18:43:21;99779.38;;;4.99;67.87
15674;BME280;7937;48.090;16.212;2023-02-12T18:46:29;99775.69;;;4.92;68.05
15674;BME280;7937;48.090;16.212;2023-02-12T18:49:33;99777.50;;;4.91;68.21
15674;BME280;7937;48.090;16.212;2023-02-12T18:52:36;99776.81;;;4.89;68.19
15674;BME280;7937;48.090;16.212;2023-02-12T18:55:40;99764.16;;;4.75;68.62
15674;BME280;7937;48.090;16.212;2023-02-12T18:58:43;99773.03;;;4.92;68.73